createdAt,value
2019-05-11T00:00:17.086Z,8.35
2019-05-11T00:01:17.127Z,8.26
2019-05-11T00:02:17.148Z,8.36
2019-05-11T00:03:17.177Z,8.36
2019-05-11T00:04:17.215Z,8.36
2019-05-11T00:05:17.240Z,8.49
2019-05-11T00:06:17.273Z,8.38
2019-05-11T00:07:17.306Z,8.45
2019-05-11T00:08:17.431Z,8.53
2019-05-11T00:09:17.363Z,8.53
2019-05-11T00:10:17.393Z,8.50
2019-05-11T00:11:17.426Z,8.35
2019-05-11T00:12:17.456Z,8.46
2019-05-11T00:13:17.487Z,8.50
2019-05-11T00:14:17.520Z,8.53
2019-05-11T00:15:17.547Z,8.46
2019-05-11T00:16:19.207Z,8.36
2019-05-11T00:17:17.610Z,8.50
2019-05-11T00:18:17.641Z,8.52
2019-05-11T00:19:17.671Z,8.59
2019-05-11T00:20:17.701Z,8.45
2019-05-11T00:21:17.734Z,8.56
2019-05-11T00:22:17.766Z,8.59
2019-05-11T00:23:17.793Z,8.57
2019-05-11T00:24:17.824Z,8.56
2019-05-11T00:25:17.858Z,8.53
2019-05-11T00:26:17.887Z,8.53
2019-05-11T00:27:17.925Z,8.44
2019-05-11T00:28:17.948Z,8.59
2019-05-11T00:29:17.979Z,8.52
2019-05-11T00:30:18.013Z,8.59
2019-05-11T00:31:18.044Z,8.59
2019-05-11T00:32:18.074Z,8.59
2019-05-11T00:33:18.108Z,8.64
2019-05-11T00:34:18.135Z,8.57
2019-05-11T00:35:18.168Z,8.68
2019-05-11T00:36:18.198Z,8.53
2019-05-11T00:37:18.229Z,8.69
2019-05-11T00:38:18.259Z,8.57
2019-05-11T00:39:18.293Z,8.66
2019-05-11T00:40:18.323Z,8.69
2019-05-11T00:41:18.352Z,8.69
2019-05-11T00:42:18.385Z,8.69
2019-05-11T00:43:18.414Z,8.57
2019-05-11T00:44:18.444Z,8.69
2019-05-11T00:45:18.485Z,8.74
2019-05-11T00:46:18.510Z,8.75
2019-05-11T00:47:18.537Z,8.71
2019-05-11T00:48:18.570Z,8.78
2019-05-11T00:49:18.602Z,8.77
2019-05-11T00:50:18.631Z,8.79
2019-05-11T00:51:18.661Z,8.96
2019-05-11T00:52:18.696Z,8.79
2019-05-11T00:53:18.736Z,8.78
2019-05-11T00:54:18.759Z,9.05
2019-05-11T00:55:18.789Z,9.11
2019-05-11T00:56:18.817Z,9.18
2019-05-11T00:57:18.850Z,9.15
2019-05-11T00:58:18.894Z,9.08
2019-05-11T00:59:21.662Z,9.09
2019-05-11T01:00:18.943Z,9.11
2019-05-11T01:01:18.978Z,9.09
2019-05-11T01:02:19.009Z,9.16
2019-05-11T01:03:19.036Z,9.18
2019-05-11T01:04:19.095Z,9.16
2019-05-11T01:05:19.107Z,9.21
2019-05-11T01:06:19.144Z,9.16
2019-05-11T01:07:19.269Z,9.18
2019-05-11T01:08:19.192Z,9.22
2019-05-11T01:09:19.225Z,9.21
2019-05-11T01:10:25.560Z,9.18
2019-05-11T01:11:19.288Z,9.11
2019-05-11T01:12:19.319Z,9.00
2019-05-11T01:13:19.355Z,9.00
2019-05-11T01:14:19.381Z,9.05
2019-05-11T01:15:19.412Z,8.93
2019-05-11T01:16:19.446Z,8.79
2019-05-11T01:17:19.479Z,8.74
2019-05-11T01:18:19.508Z,8.72
2019-05-11T01:19:19.537Z,8.74
2019-05-11T01:20:19.570Z,8.69
2019-05-11T01:21:19.603Z,8.68
2019-05-11T01:22:19.634Z,8.71
2019-05-11T01:23:19.664Z,8.79
2019-05-11T01:24:19.694Z,8.77
2019-05-11T01:25:19.725Z,8.72
2019-05-11T01:26:19.758Z,8.72
2019-05-11T01:27:19.790Z,8.74
2019-05-11T01:28:19.824Z,8.72
2019-05-11T01:29:19.853Z,8.75
2019-05-11T01:30:19.886Z,8.75
2019-05-11T01:31:19.918Z,8.72
2019-05-11T01:32:19.944Z,8.74
2019-05-11T01:33:19.976Z,8.74
2019-05-11T01:34:20.010Z,8.64
2019-05-11T01:35:20.037Z,8.68
2019-05-11T01:36:20.070Z,8.68
2019-05-11T01:37:20.101Z,8.69
2019-05-11T01:38:20.141Z,8.69
2019-05-11T01:39:20.249Z,8.68
2019-05-11T01:40:20.194Z,8.66
2019-05-11T01:41:20.230Z,8.69
2019-05-11T01:42:20.261Z,8.72
2019-05-11T01:43:20.291Z,8.71
2019-05-11T01:44:20.321Z,8.69
2019-05-11T01:45:20.350Z,8.64
2019-05-11T01:46:20.386Z,8.69
2019-05-11T01:47:20.413Z,8.71
2019-05-11T01:48:20.444Z,8.68
2019-05-11T01:49:20.476Z,8.68
2019-05-11T01:50:20.555Z,8.69
2019-05-11T01:51:20.888Z,8.71
2019-05-11T01:52:20.571Z,8.69
2019-05-11T01:53:20.613Z,8.71
2019-05-11T01:54:20.631Z,8.69
2019-05-11T01:55:20.663Z,8.71
2019-05-11T01:56:20.696Z,8.75
2019-05-11T01:57:20.730Z,8.81
2019-05-11T01:58:20.758Z,8.74
2019-05-11T01:59:20.788Z,8.78
2019-05-11T02:00:20.821Z,8.78
2019-05-11T02:01:20.852Z,8.84
2019-05-11T02:02:20.883Z,8.79
2019-05-11T02:03:20.911Z,8.82
2019-05-11T02:04:20.942Z,8.68
2019-05-11T02:05:20.975Z,8.61
2019-05-11T02:06:21.012Z,8.66
2019-05-11T02:07:21.038Z,8.68
2019-05-11T02:08:21.067Z,8.71
2019-05-11T02:09:21.098Z,8.72
2019-05-11T02:10:21.130Z,8.66
2019-05-11T02:11:21.161Z,8.69
2019-05-11T02:12:21.191Z,8.71
2019-05-11T02:13:21.223Z,8.63
2019-05-11T02:14:21.260Z,8.66
2019-05-11T02:15:21.288Z,8.66
2019-05-11T02:16:21.324Z,8.71
2019-05-11T02:17:21.351Z,8.59
2019-05-11T02:18:21.383Z,8.61
2019-05-11T02:19:21.412Z,8.61
2019-05-11T02:20:21.444Z,8.68
2019-05-11T02:21:21.474Z,8.56
2019-05-11T02:22:21.505Z,8.63
2019-05-11T02:23:21.537Z,8.56
2019-05-11T02:24:21.570Z,8.61
2019-05-11T02:25:21.598Z,8.45
2019-05-11T02:26:21.627Z,8.57
2019-05-11T02:27:21.663Z,8.56
2019-05-11T02:28:21.695Z,8.57
2019-05-11T02:29:21.725Z,8.49
2019-05-11T02:30:21.756Z,8.53
2019-05-11T02:31:21.806Z,8.59
2019-05-11T02:32:21.818Z,8.45
2019-05-11T02:33:21.850Z,8.56
2019-05-11T02:34:21.886Z,8.56
2019-05-11T02:35:21.909Z,8.54
2019-05-11T02:36:21.945Z,8.69
2019-05-11T02:37:21.972Z,8.52
2019-05-11T02:38:22.003Z,8.54
2019-05-11T02:39:22.036Z,8.57
2019-05-11T02:40:22.066Z,8.56
2019-05-11T02:41:35.711Z,8.57
2019-05-11T02:42:22.133Z,8.59
2019-05-11T02:43:22.162Z,8.56
2019-05-11T02:44:22.190Z,8.54
2019-05-11T02:45:22.222Z,8.59
2019-05-11T02:46:22.252Z,8.59
2019-05-11T02:47:22.290Z,8.53
2019-05-11T02:48:22.315Z,8.53
2019-05-11T02:49:22.346Z,8.60
2019-05-11T02:50:22.390Z,8.57
2019-05-11T02:51:22.410Z,8.68
2019-05-11T02:52:22.444Z,8.66
2019-05-11T02:53:22.468Z,8.61
2019-05-11T02:54:22.499Z,8.53
2019-05-11T02:55:22.542Z,8.53
2019-05-11T02:56:22.566Z,8.74
2019-05-11T02:57:22.594Z,8.75
2019-05-11T02:58:22.634Z,8.69
2019-05-11T02:59:22.659Z,8.77
2019-05-11T03:00:22.686Z,8.72
2019-05-11T03:01:22.719Z,8.74
2019-05-11T03:02:22.754Z,8.71
2019-05-11T03:03:22.787Z,8.75
2019-05-11T03:04:22.811Z,8.71
2019-05-11T03:05:22.848Z,8.72
2019-05-11T03:06:22.875Z,8.79
2019-05-11T03:07:22.908Z,8.77
2019-05-11T03:08:22.937Z,8.72
2019-05-11T03:09:22.969Z,8.78
2019-05-11T03:10:23.002Z,8.81
2019-05-11T03:11:23.032Z,8.81
2019-05-11T03:12:23.091Z,8.79
2019-05-11T03:13:23.092Z,8.84
2019-05-11T03:14:23.129Z,8.84
2019-05-11T03:15:23.158Z,8.84
2019-05-11T03:16:23.189Z,8.81
2019-05-11T03:17:23.219Z,8.84
2019-05-11T03:18:23.254Z,8.81
2019-05-11T03:19:23.280Z,8.81
2019-05-11T03:20:23.314Z,8.84
2019-05-11T03:21:23.404Z,8.86
2019-05-11T03:22:23.379Z,8.93
2019-05-11T03:23:23.403Z,9.05
2019-05-11T03:24:24.113Z,9.02
2019-05-11T03:25:23.465Z,8.97
2019-05-11T03:26:23.498Z,9.00
2019-05-11T03:27:23.532Z,8.99
2019-05-11T03:28:23.566Z,9.09
2019-05-11T03:29:23.596Z,9.09
2019-05-11T03:30:23.624Z,9.03
2019-05-11T03:31:23.658Z,9.13
2019-05-11T03:32:23.687Z,9.09
2019-05-11T03:33:23.721Z,9.15
2019-05-11T03:34:23.753Z,9.03
2019-05-11T03:35:23.784Z,9.05
2019-05-11T03:36:23.812Z,9.11
2019-05-11T03:37:23.847Z,9.11
2019-05-11T03:38:23.885Z,9.18
2019-05-11T03:39:23.907Z,9.16
2019-05-11T03:40:23.938Z,9.21
2019-05-11T03:41:23.970Z,9.26
2019-05-11T03:42:24.016Z,9.31
2019-05-11T03:43:24.033Z,9.29
2019-05-11T03:44:24.069Z,9.47
2019-05-11T03:45:24.103Z,9.49
2019-05-11T03:46:24.128Z,9.44
2019-05-11T03:47:24.160Z,9.34
2019-05-11T03:48:24.192Z,9.47
2019-05-11T03:49:24.230Z,9.44
2019-05-11T03:50:24.255Z,9.58
2019-05-11T03:51:24.298Z,9.63
2019-05-11T03:52:24.319Z,9.56
2019-05-11T03:53:24.349Z,9.58
2019-05-11T03:54:24.382Z,9.70
2019-05-11T03:55:24.413Z,9.70
2019-05-11T03:56:24.449Z,9.82
2019-05-11T03:57:24.479Z,9.69
2019-05-11T03:58:26.212Z,9.70
2019-05-11T03:59:24.543Z,9.70
2019-05-11T04:00:24.581Z,9.72
2019-05-11T04:01:24.607Z,9.72
2019-05-11T04:02:24.639Z,9.72
2019-05-11T04:03:24.673Z,9.84
2019-05-11T04:04:24.717Z,9.77
2019-05-11T04:05:24.771Z,9.80
2019-05-11T04:06:24.769Z,9.90
2019-05-11T04:07:24.803Z,9.88
2019-05-11T04:08:24.838Z,10.02
2019-05-11T04:09:24.864Z,9.95
2019-05-11T04:10:25.728Z,10.00
2019-05-11T04:11:24.929Z,10.00
2019-05-11T04:12:34.535Z,10.10
2019-05-11T04:13:24.991Z,10.06
2019-05-11T04:14:25.025Z,10.17
2019-05-11T04:15:25.056Z,10.15
2019-05-11T04:16:25.091Z,10.21
2019-05-11T04:17:25.122Z,10.24
2019-05-11T04:18:25.155Z,10.24
2019-05-11T04:19:25.192Z,10.24
2019-05-11T04:20:25.220Z,10.31
2019-05-11T04:21:25.254Z,10.28
2019-05-11T04:22:25.284Z,10.41
2019-05-11T04:23:25.314Z,10.33
2019-05-11T04:24:25.348Z,10.49
2019-05-11T04:25:25.380Z,10.48
2019-05-11T04:26:25.418Z,10.62
2019-05-11T04:27:25.446Z,10.64
2019-05-11T04:28:25.477Z,10.65
2019-05-11T04:29:25.514Z,10.69
2019-05-11T04:30:25.543Z,10.71
2019-05-11T04:31:25.576Z,10.84
2019-05-11T04:32:25.607Z,10.72
2019-05-11T04:33:25.640Z,10.69
2019-05-11T04:34:25.676Z,10.87
2019-05-11T04:35:25.707Z,10.89
2019-05-11T04:36:25.745Z,10.80
2019-05-11T04:37:25.774Z,11.04
2019-05-11T04:38:25.802Z,10.94
2019-05-11T04:39:25.840Z,10.94
2019-05-11T04:40:25.868Z,10.92
2019-05-11T04:41:25.906Z,11.01
2019-05-11T04:42:25.938Z,11.00
2019-05-11T04:43:25.968Z,10.95
2019-05-11T04:44:26.000Z,11.02
2019-05-11T04:45:26.037Z,11.00
2019-05-11T04:46:26.069Z,11.18
2019-05-11T04:47:26.109Z,11.20
2019-05-11T04:48:26.153Z,11.00
2019-05-11T04:49:26.167Z,11.13
2019-05-11T04:50:26.200Z,11.31
2019-05-11T04:51:26.235Z,11.31
2019-05-11T04:52:26.270Z,11.49
2019-05-11T04:53:26.301Z,11.59
2019-05-11T04:54:26.332Z,11.63
2019-05-11T04:55:26.367Z,11.71
2019-05-11T04:56:26.401Z,11.68
2019-05-11T04:57:26.434Z,11.86
2019-05-11T04:58:26.471Z,11.88
2019-05-11T04:59:26.515Z,11.99
2019-05-11T05:00:26.541Z,12.08
2019-05-11T05:01:26.571Z,11.97
2019-05-11T05:02:27.324Z,12.08
2019-05-11T05:03:39.850Z,12.26
2019-05-11T05:04:26.672Z,12.20
2019-05-11T05:05:26.705Z,11.93
2019-05-11T05:06:26.735Z,11.88
2019-05-11T05:07:26.770Z,11.77
2019-05-11T05:08:28.036Z,11.73
2019-05-11T05:09:26.931Z,11.68
2019-05-11T05:10:26.874Z,11.59
2019-05-11T05:11:30.559Z,11.41
2019-05-11T05:12:26.964Z,11.22
2019-05-11T05:13:29.514Z,11.02
2019-05-11T05:14:27.009Z,10.82
2019-05-11T05:15:27.041Z,10.84
2019-05-11T05:16:30.978Z,10.80
2019-05-11T05:17:27.112Z,10.82
2019-05-11T05:18:27.143Z,10.79
2019-05-11T05:19:27.180Z,10.82
2019-05-11T05:20:27.210Z,10.92
2019-05-11T05:21:27.249Z,10.87
2019-05-11T05:22:28.089Z,10.76
2019-05-11T05:23:27.308Z,10.90
2019-05-11T05:24:27.351Z,11.00
2019-05-11T05:25:27.379Z,11.01
2019-05-11T05:26:27.414Z,11.07
2019-05-11T05:27:27.648Z,11.05
2019-05-11T05:28:27.481Z,11.22
2019-05-11T05:29:27.520Z,11.20
2019-05-11T05:30:27.545Z,11.08
2019-05-11T05:31:27.581Z,11.04
2019-05-11T05:32:27.615Z,11.18
2019-05-11T05:33:27.656Z,11.07
2019-05-11T05:34:27.680Z,11.12
2019-05-11T05:35:27.714Z,10.98
2019-05-11T05:36:27.745Z,11.02
2019-05-11T05:37:27.780Z,11.04
2019-05-11T05:38:27.813Z,11.07
2019-05-11T05:39:27.855Z,11.07
2019-05-11T05:40:27.879Z,11.12
2019-05-11T05:41:27.916Z,11.13
2019-05-11T05:42:27.949Z,11.20
2019-05-11T05:43:28.649Z,11.10
2019-05-11T05:44:28.239Z,11.20
2019-05-11T05:45:28.048Z,11.34
2019-05-11T05:46:28.085Z,11.53
2019-05-11T05:47:28.115Z,11.52
2019-05-11T05:48:28.151Z,11.62
2019-05-11T05:49:28.182Z,11.78
2019-05-11T05:50:28.222Z,11.78
2019-05-11T05:51:28.250Z,11.97
2019-05-11T05:52:28.282Z,12.08
2019-05-11T05:53:28.321Z,12.15
2019-05-11T05:54:28.355Z,12.08
2019-05-11T05:55:28.383Z,12.10
2019-05-11T05:56:28.418Z,12.17
2019-05-11T05:57:28.452Z,12.21
2019-05-11T05:58:28.492Z,12.29
2019-05-11T05:59:28.522Z,12.40
2019-05-11T06:00:28.560Z,12.54
2019-05-11T06:01:28.594Z,12.61
2019-05-11T06:02:28.651Z,12.68
2019-05-11T06:03:28.658Z,12.76
2019-05-11T06:04:28.698Z,12.78
2019-05-11T06:05:28.735Z,12.90
2019-05-11T06:06:28.825Z,13.09
2019-05-11T06:07:28.799Z,13.16
2019-05-11T06:08:28.834Z,13.23
2019-05-11T06:09:28.873Z,13.26
2019-05-11T06:10:28.909Z,13.33
2019-05-11T06:11:28.941Z,13.43
2019-05-11T06:12:28.984Z,13.54
2019-05-11T06:13:44.091Z,13.39
2019-05-11T06:14:29.050Z,13.42
2019-05-11T06:15:29.085Z,13.67
2019-05-11T06:16:29.118Z,13.87
2019-05-11T06:17:29.160Z,13.93
2019-05-11T06:18:29.192Z,13.93
2019-05-11T06:19:29.226Z,14.11
2019-05-11T06:20:29.273Z,14.18
2019-05-11T06:21:29.299Z,13.95
2019-05-11T06:22:29.343Z,13.98
2019-05-11T06:23:29.373Z,14.30
2019-05-11T06:24:29.420Z,14.53
2019-05-11T06:25:29.732Z,14.62
2019-05-11T06:26:29.485Z,14.96
2019-05-11T06:27:29.520Z,15.14
2019-05-11T06:28:29.559Z,15.70
2019-05-11T06:29:29.598Z,16.05
2019-05-11T06:30:29.635Z,17.02
2019-05-11T06:31:29.670Z,16.44
2019-05-11T06:32:29.707Z,16.28
2019-05-11T06:33:29.749Z,15.87
2019-05-11T06:34:29.784Z,15.41
2019-05-11T06:35:29.823Z,15.32
2019-05-11T06:36:29.862Z,15.59
2019-05-11T06:37:29.902Z,16.12
2019-05-11T06:38:29.952Z,15.81
2019-05-11T06:39:30.013Z,15.59
2019-05-11T06:40:30.018Z,15.72
2019-05-11T06:41:30.057Z,15.57
2019-05-11T06:42:30.099Z,15.76
2019-05-11T06:43:30.134Z,16.03
2019-05-11T06:44:30.174Z,16.28
2019-05-11T06:45:30.218Z,16.47
2019-05-11T06:46:30.255Z,16.66
2019-05-11T06:47:30.292Z,16.61
2019-05-11T06:48:30.336Z,17.63
2019-05-11T06:49:30.372Z,18.57
2019-05-11T06:50:30.413Z,18.60
2019-05-11T06:51:30.452Z,18.31
2019-05-11T06:52:30.513Z,17.80
2019-05-11T06:53:30.539Z,17.59
2019-05-11T06:54:30.574Z,17.01
2019-05-11T06:55:30.614Z,16.47
2019-05-11T06:56:30.663Z,16.16
2019-05-11T06:57:30.696Z,16.17
2019-05-11T06:58:30.748Z,16.18
2019-05-11T06:59:30.801Z,16.36
2019-05-11T07:00:30.824Z,17.05
2019-05-11T07:01:30.863Z,17.09
2019-05-11T07:02:30.902Z,16.65
2019-05-11T07:03:30.941Z,16.80
2019-05-11T07:04:30.994Z,16.86
2019-05-11T07:05:31.023Z,17.01
2019-05-11T07:06:31.068Z,17.37
2019-05-11T07:07:46.079Z,17.50
2019-05-11T07:08:31.146Z,17.87
2019-05-11T07:09:31.188Z,18.68
2019-05-11T07:10:31.250Z,18.92
2019-05-11T07:11:31.275Z,18.13
2019-05-11T07:12:31.317Z,18.57
2019-05-11T07:13:31.354Z,18.52
2019-05-11T07:14:31.397Z,18.74
2019-05-11T07:15:31.437Z,18.91
2019-05-11T07:16:31.486Z,18.98
2019-05-11T07:17:31.524Z,19.45
2019-05-11T07:18:31.563Z,19.75
2019-05-11T07:19:31.614Z,19.38
2019-05-11T07:20:31.664Z,19.71
2019-05-11T07:21:31.691Z,19.24
2019-05-11T07:22:31.736Z,19.96
2019-05-11T07:23:31.779Z,19.44
2019-05-11T07:24:31.820Z,18.53
2019-05-11T07:25:31.868Z,18.86
2019-05-11T07:26:31.907Z,19.20
2019-05-11T07:27:31.953Z,19.16
2019-05-11T07:28:32.025Z,19.17
2019-05-11T07:29:32.036Z,19.16
2019-05-11T07:30:32.080Z,18.53
2019-05-11T07:31:32.124Z,18.39
2019-05-11T07:32:32.167Z,18.78
2019-05-11T07:33:32.211Z,18.71
2019-05-11T07:34:32.257Z,18.66
2019-05-11T07:35:32.301Z,19.01
2019-05-11T07:36:32.342Z,19.39
2019-05-11T07:37:32.389Z,19.70
2019-05-11T07:38:32.427Z,19.59
2019-05-11T07:39:32.471Z,18.68
2019-05-11T07:40:32.517Z,18.67
2019-05-11T07:41:32.561Z,19.19
2019-05-11T07:42:32.606Z,19.49
2019-05-11T07:43:32.646Z,19.67
2019-05-11T07:44:38.259Z,19.22
2019-05-11T07:45:32.735Z,19.37
2019-05-11T07:46:32.780Z,19.38
2019-05-11T07:47:32.822Z,18.94
2019-05-11T07:48:32.869Z,19.20
2019-05-11T07:49:32.911Z,19.92
2019-05-11T07:50:32.956Z,20.53
2019-05-11T07:51:33.002Z,20.30
2019-05-11T07:52:33.056Z,19.71
2019-05-11T07:53:33.096Z,19.07
2019-05-11T07:54:33.137Z,19.42
2019-05-11T07:55:33.179Z,19.08
2019-05-11T07:56:33.227Z,19.08
2019-05-11T07:57:33.269Z,18.68
2019-05-11T07:58:33.318Z,18.05
2019-05-11T07:59:33.359Z,18.12
2019-05-11T08:00:36.471Z,18.94
2019-05-11T08:01:33.454Z,19.09
2019-05-11T08:02:33.496Z,19.15
2019-05-11T08:03:33.536Z,18.61
2019-05-11T08:04:33.581Z,18.49
2019-05-11T08:05:33.625Z,18.71
2019-05-11T08:06:33.672Z,18.37
2019-05-11T08:07:33.715Z,17.69
2019-05-11T08:08:33.758Z,17.17
2019-05-11T08:09:33.801Z,17.02
2019-05-11T08:10:33.849Z,17.01
2019-05-11T08:11:33.903Z,16.89
2019-05-11T08:12:33.931Z,17.17
2019-05-11T08:13:33.980Z,17.04
2019-05-11T08:14:34.021Z,16.40
2019-05-11T08:15:34.063Z,16.34
2019-05-11T08:16:34.107Z,16.28
2019-05-11T08:17:34.149Z,16.31
2019-05-11T08:18:34.192Z,16.36
2019-05-11T08:19:34.239Z,16.39
2019-05-11T08:20:34.276Z,16.49
2019-05-11T08:21:34.316Z,16.36
2019-05-11T08:22:34.357Z,16.18
2019-05-11T08:23:34.400Z,15.98
2019-05-11T08:24:34.440Z,16.00
2019-05-11T08:25:34.488Z,16.18
2019-05-11T08:26:34.527Z,16.34
2019-05-11T08:27:34.566Z,16.47
2019-05-11T08:28:34.609Z,16.86
2019-05-11T08:29:34.650Z,17.22
2019-05-11T08:30:34.702Z,17.28
2019-05-11T08:31:34.735Z,17.14
2019-05-11T08:32:34.819Z,17.10
2019-05-11T08:33:34.880Z,17.01
2019-05-11T08:34:34.885Z,17.12
2019-05-11T08:35:34.901Z,16.97
2019-05-11T08:36:34.941Z,16.54
2019-05-11T08:37:34.981Z,16.21
2019-05-11T08:38:35.021Z,15.85
2019-05-11T08:39:35.063Z,15.43
2019-05-11T08:40:35.103Z,15.65
2019-05-11T08:41:35.143Z,15.60
2019-05-11T08:42:37.663Z,15.69
2019-05-11T08:43:35.227Z,15.91
2019-05-11T08:44:37.826Z,15.96
2019-05-11T08:45:35.310Z,16.25
2019-05-11T08:46:35.350Z,16.34
2019-05-11T08:47:37.571Z,16.44
2019-05-11T08:48:35.430Z,16.43
2019-05-11T08:49:37.892Z,16.37
2019-05-11T08:50:35.511Z,16.41
2019-05-11T08:51:35.549Z,16.39
2019-05-11T08:52:35.592Z,16.16
2019-05-11T08:53:35.631Z,15.62
2019-05-11T08:54:38.033Z,15.76
2019-05-11T08:55:37.988Z,15.94
2019-05-11T08:56:38.094Z,16.40
2019-05-11T08:57:35.797Z,16.76
2019-05-11T08:58:38.025Z,17.34
2019-05-11T08:59:38.021Z,17.05
2019-05-11T09:00:35.914Z,16.72
2019-05-11T09:01:35.953Z,17.28
2019-05-11T09:02:38.170Z,17.34
2019-05-11T09:03:38.556Z,17.71
2019-05-11T09:04:41.079Z,18.24
2019-05-11T09:05:38.275Z,18.13
2019-05-11T09:06:37.687Z,18.34
2019-05-11T09:07:38.327Z,18.76
2019-05-11T09:08:38.648Z,18.91
2019-05-11T09:09:38.074Z,19.08
2019-05-11T09:10:37.641Z,19.22
2019-05-11T09:11:38.716Z,19.07
2019-05-11T09:12:38.185Z,18.91
2019-05-11T09:13:36.452Z,18.79
2019-05-11T09:14:38.761Z,18.39
2019-05-11T09:15:38.225Z,18.28
2019-05-11T09:16:38.393Z,17.91
2019-05-11T09:17:38.121Z,17.65
2019-05-11T09:18:38.607Z,17.68
2019-05-11T09:19:38.797Z,17.16
2019-05-11T09:20:37.840Z,16.98
2019-05-11T09:21:38.283Z,16.43
2019-05-11T09:22:38.085Z,16.24
2019-05-11T09:23:39.948Z,16.39
2019-05-11T09:24:38.593Z,16.17
2019-05-11T09:25:38.533Z,15.94
2019-05-11T09:26:38.945Z,15.91
2019-05-11T09:27:37.671Z,15.88
2019-05-11T09:28:38.416Z,15.85
2019-05-11T09:29:38.675Z,15.85
2019-05-11T09:30:37.851Z,15.90
2019-05-11T09:31:38.210Z,15.96
2019-05-11T09:32:38.516Z,15.87
2019-05-11T09:33:38.644Z,15.59
2019-05-11T09:34:37.846Z,15.45
2019-05-11T09:35:47.516Z,15.45
2019-05-11T09:36:38.929Z,15.51
2019-05-11T09:37:38.191Z,15.50
2019-05-11T09:38:38.384Z,15.27
2019-05-11T09:39:38.308Z,15.15
2019-05-11T09:40:38.582Z,15.29
2019-05-11T09:41:38.355Z,15.12
2019-05-11T09:42:38.912Z,15.37
2019-05-11T09:43:37.797Z,15.59
2019-05-11T09:44:38.078Z,15.65
2019-05-11T09:45:48.378Z,15.92
2019-05-11T09:46:38.560Z,16.08
2019-05-11T09:47:38.606Z,16.00
2019-05-11T09:48:38.079Z,16.00
2019-05-11T09:49:46.608Z,16.06
2019-05-11T09:50:38.755Z,16.09
2019-05-11T09:51:38.232Z,16.02
2019-05-11T09:52:38.602Z,15.92
2019-05-11T09:53:38.837Z,15.84
2019-05-11T09:54:38.507Z,15.76
2019-05-11T09:55:38.872Z,15.76
2019-05-11T09:56:38.413Z,15.59
2019-05-11T09:57:38.395Z,15.30
2019-05-11T09:58:38.800Z,15.22
2019-05-11T09:59:38.708Z,15.25
2019-05-11T10:00:38.955Z,15.26
2019-05-11T10:01:38.414Z,15.22
2019-05-11T10:02:38.806Z,14.99
2019-05-11T10:03:38.827Z,14.93
2019-05-11T10:04:38.532Z,15.05
2019-05-11T10:05:38.572Z,15.15
2019-05-11T10:06:39.010Z,14.87
2019-05-11T10:07:38.650Z,14.90
2019-05-11T10:08:38.691Z,14.81
2019-05-11T10:09:38.731Z,14.77
2019-05-11T10:10:38.769Z,14.78
2019-05-11T10:11:39.953Z,14.62
2019-05-11T10:12:38.852Z,14.44
2019-05-11T10:13:38.888Z,14.37
2019-05-11T10:14:38.927Z,14.48
2019-05-11T10:15:38.966Z,14.55
2019-05-11T10:16:39.005Z,14.59
2019-05-11T10:17:39.047Z,14.56
2019-05-11T10:18:39.083Z,14.59
2019-05-11T10:19:39.649Z,14.55
2019-05-11T10:20:39.353Z,14.37
2019-05-11T10:21:39.201Z,14.45
2019-05-11T10:22:39.242Z,14.30
2019-05-11T10:23:42.333Z,14.11
2019-05-11T10:24:39.317Z,14.12
2019-05-11T10:25:39.402Z,13.86
2019-05-11T10:26:39.396Z,13.89
2019-05-11T10:27:39.435Z,13.83
2019-05-11T10:28:39.472Z,13.93
2019-05-11T10:29:39.510Z,14.12
2019-05-11T10:30:39.549Z,14.22
2019-05-11T10:31:39.587Z,14.37
2019-05-11T10:32:39.629Z,14.41
2019-05-11T10:33:39.666Z,14.34
2019-05-11T10:34:39.701Z,14.45
2019-05-11T10:35:39.739Z,14.55
2019-05-11T10:36:39.778Z,14.52
2019-05-11T10:37:39.818Z,14.63
2019-05-11T10:38:39.854Z,14.44
2019-05-11T10:39:39.893Z,14.45
2019-05-11T10:40:39.933Z,14.41
2019-05-11T10:41:39.970Z,14.23
2019-05-11T10:42:40.009Z,14.04
2019-05-11T10:43:40.045Z,14.08
2019-05-11T10:44:40.084Z,13.83
2019-05-11T10:45:40.121Z,13.82
2019-05-11T10:46:40.159Z,13.73
2019-05-11T10:47:40.198Z,13.67
2019-05-11T10:48:40.236Z,13.52
2019-05-11T10:49:40.273Z,13.42
2019-05-11T10:50:40.309Z,13.40
2019-05-11T10:51:40.352Z,13.43
2019-05-11T10:52:40.387Z,13.31
2019-05-11T10:53:40.428Z,13.42
2019-05-11T10:54:40.461Z,13.40
2019-05-11T10:55:40.497Z,13.36
2019-05-11T10:56:40.534Z,13.33
2019-05-11T10:57:40.571Z,13.37
2019-05-11T10:58:40.608Z,13.16
2019-05-11T10:59:40.648Z,13.11
2019-05-11T11:00:40.684Z,13.05
2019-05-11T11:01:40.720Z,13.11
2019-05-11T11:02:40.760Z,13.19
2019-05-11T11:03:40.801Z,13.21
2019-05-11T11:04:40.828Z,13.23
2019-05-11T11:05:40.866Z,13.23
2019-05-11T11:06:40.909Z,13.16
2019-05-11T11:07:40.941Z,13.19
2019-05-11T11:08:40.983Z,13.03
2019-05-11T11:09:41.013Z,13.12
2019-05-11T11:10:41.053Z,13.09
2019-05-11T11:11:41.087Z,13.03
2019-05-11T11:12:41.125Z,13.05
2019-05-11T11:13:41.165Z,13.11
2019-05-11T11:14:41.201Z,13.11
2019-05-11T11:15:41.232Z,13.23
2019-05-11T11:16:42.916Z,13.21
2019-05-11T11:17:41.301Z,13.17
2019-05-11T11:18:41.343Z,13.21
2019-05-11T11:19:41.374Z,13.09
2019-05-11T11:20:41.412Z,13.27
2019-05-11T11:21:41.447Z,13.17
2019-05-11T11:22:44.272Z,13.09
2019-05-11T11:23:41.521Z,13.16
2019-05-11T11:24:41.556Z,13.12
2019-05-11T11:25:41.590Z,13.17
2019-05-11T11:26:41.625Z,13.24
2019-05-11T11:27:41.662Z,13.31
2019-05-11T11:28:41.702Z,13.26
2019-05-11T11:29:41.733Z,13.26
2019-05-11T11:30:41.769Z,13.27
2019-05-11T11:31:41.805Z,13.31
2019-05-11T11:32:41.845Z,13.24
2019-05-11T11:33:41.875Z,13.26
2019-05-11T11:34:41.915Z,13.02
2019-05-11T11:35:41.950Z,13.12
2019-05-11T11:36:41.983Z,13.03
2019-05-11T11:37:42.020Z,12.93
2019-05-11T11:38:42.057Z,12.99
2019-05-11T11:39:42.091Z,12.93
2019-05-11T11:40:42.882Z,12.94
2019-05-11T11:41:42.165Z,12.94
2019-05-11T11:42:42.209Z,13.11
2019-05-11T11:43:42.234Z,13.20
2019-05-11T11:44:42.272Z,13.16
2019-05-11T11:45:42.309Z,13.26
2019-05-11T11:46:54.252Z,13.23
2019-05-11T11:47:42.376Z,13.06
2019-05-11T11:48:42.414Z,12.99
2019-05-11T11:49:42.448Z,13.03
2019-05-11T11:50:42.484Z,13.13
2019-05-11T11:51:42.518Z,13.19
2019-05-11T11:52:45.074Z,13.19
2019-05-11T11:53:42.591Z,13.09
2019-05-11T11:54:42.639Z,13.08
2019-05-11T11:55:42.668Z,13.11
2019-05-11T11:56:42.705Z,12.98
2019-05-11T11:57:42.734Z,12.98
2019-05-11T11:58:42.769Z,12.93
2019-05-11T11:59:42.805Z,12.87
2019-05-11T12:00:42.839Z,12.90
2019-05-11T12:01:42.875Z,12.76
2019-05-11T12:02:42.910Z,12.70
2019-05-11T12:03:42.947Z,12.62
2019-05-11T12:04:42.991Z,12.66
2019-05-11T12:05:43.026Z,12.73
2019-05-11T12:06:43.057Z,12.51
2019-05-11T12:07:43.089Z,12.51
2019-05-11T12:08:43.124Z,12.68
2019-05-11T12:09:43.158Z,12.66
2019-05-11T12:10:43.194Z,12.58
2019-05-11T12:11:43.231Z,12.69
2019-05-11T12:12:43.265Z,12.62
2019-05-11T12:13:43.299Z,12.66
2019-05-11T12:14:43.334Z,12.72
2019-05-11T12:15:43.376Z,12.72
2019-05-11T12:16:43.407Z,12.70
2019-05-11T12:17:43.454Z,12.69
2019-05-11T12:18:43.475Z,12.69
2019-05-11T12:19:43.513Z,12.75
2019-05-11T12:20:43.545Z,12.70
2019-05-11T12:21:43.583Z,12.65
2019-05-11T12:22:43.614Z,12.68
2019-05-11T12:23:43.648Z,12.40
2019-05-11T12:24:43.684Z,12.47
2019-05-11T12:25:43.720Z,12.28
2019-05-11T12:26:43.757Z,12.20
2019-05-11T12:27:43.794Z,12.08
2019-05-11T12:28:43.824Z,11.99
2019-05-11T12:29:43.860Z,11.80
2019-05-11T12:30:43.893Z,11.93
2019-05-11T12:31:43.930Z,11.83
2019-05-11T12:32:43.968Z,11.74
2019-05-11T12:33:43.997Z,11.68
2019-05-11T12:34:44.035Z,11.58
2019-05-11T12:35:44.067Z,11.55
2019-05-11T12:36:44.101Z,11.45
2019-05-11T12:37:44.136Z,11.49
2019-05-11T12:38:44.171Z,11.51
2019-05-11T12:39:44.206Z,11.48
2019-05-11T12:40:44.243Z,11.45
2019-05-11T12:41:44.271Z,11.48
2019-05-11T12:42:44.308Z,11.43
2019-05-11T12:43:44.340Z,11.49
2019-05-11T12:44:44.374Z,11.43
2019-05-11T12:45:44.408Z,11.51
2019-05-11T12:46:44.441Z,11.33
2019-05-11T12:47:44.478Z,11.34
2019-05-11T12:48:44.509Z,11.35
2019-05-11T12:49:44.545Z,11.30
2019-05-11T12:50:44.579Z,11.33
2019-05-11T12:51:44.614Z,11.33
2019-05-11T12:52:44.646Z,11.31
2019-05-11T12:53:44.677Z,11.34
2019-05-11T12:54:44.714Z,11.38
2019-05-11T12:55:44.744Z,11.41
2019-05-11T12:56:44.777Z,11.44
2019-05-11T12:57:44.811Z,11.43
2019-05-11T12:58:44.846Z,11.55
2019-05-11T12:59:44.878Z,11.55
2019-05-11T13:00:44.912Z,11.52